Terminal Aerodrome Forecast
Issued by NWS

Home | Current Version | Previous Version | Text Only | Print | Product List | Glossary Off
Versions: 1 2 3 4 5 6 7 8 9 10 11 12

000
FTUS45 KGGW 282320
TAFSDY
TAF
KSDY 282320Z 2900/2924 VRB03KT P6SM BKN120
     FM291500 20004KT P6SM SCT090
     FM291900 21004KT P6SM BKN100=

USA.gov is the U.S. government's official web portal to all federal, state and local government web resources and services.